createdAt,value
2023-02-15T00:00:57.089Z,75.46
2023-02-15T00:03:29.447Z,75.96
2023-02-15T00:06:03.254Z,76.53
2023-02-15T00:08:36.078Z,76.12
2023-02-15T00:11:13.857Z,76.31
2023-02-15T00:13:46.991Z,76.14
2023-02-15T00:16:19.594Z,76.40
2023-02-15T00:18:54.911Z,77.09
2023-02-15T00:21:27.856Z,76.12
2023-02-15T00:24:02.278Z,76.34
2023-02-15T00:26:36.312Z,75.41
2023-02-15T00:29:09.287Z,76.36
2023-02-15T00:31:43.084Z,75.82
2023-02-15T00:34:24.537Z,75.31
2023-02-15T00:36:57.619Z,75.53
2023-02-15T00:39:30.531Z,75.49
2023-02-15T00:42:04.391Z,75.14
2023-02-15T00:44:36.887Z,76.33
2023-02-15T00:47:09.546Z,76.33
2023-02-15T00:49:41.972Z,75.13
2023-02-15T00:52:14.525Z,74.94
2023-02-15T00:54:47.331Z,74.92
2023-02-15T00:57:19.684Z,74.65
2023-02-15T00:59:53.393Z,75.36
2023-02-15T01:02:25.882Z,75.08
2023-02-15T01:04:59.082Z,74.44
2023-02-15T01:07:32.014Z,74.54
2023-02-15T01:10:05.312Z,74.92
2023-02-15T01:12:38.845Z,74.46
2023-02-15T01:15:12.300Z,73.83
2023-02-15T01:17:47.314Z,74.44
2023-02-15T01:20:21.985Z,75.07
2023-02-15T01:22:55.745Z,74.77
2023-02-15T01:25:28.565Z,75.32
2023-02-15T01:28:01.217Z,74.36
2023-02-15T01:30:34.721Z,73.67
2023-02-15T01:33:08.445Z,73.96
2023-02-15T01:35:41.131Z,73.10
2023-02-15T01:38:15.957Z,72.57
2023-02-15T01:40:51.709Z,72.45
2023-02-15T01:43:24.135Z,73.93
2023-02-15T01:45:56.700Z,74.46
2023-02-15T01:48:29.385Z,73.99
2023-02-15T01:51:03.346Z,73.46
2023-02-15T01:53:40.721Z,73.00
2023-02-15T01:56:25.801Z,72.30
2023-02-15T01:58:59.023Z,72.08
2023-02-15T02:01:31.403Z,72.40
2023-02-15T02:04:17.555Z,71.51
2023-02-15T02:06:50.326Z,70.41
2023-02-15T02:09:22.765Z,69.29
2023-02-15T02:11:56.838Z,69.55
2023-02-15T02:14:29.398Z,69.36
2023-02-15T02:17:30.668Z,68.77
2023-02-15T02:20:43.217Z,68.14
2023-02-15T02:23:44.010Z,67.89
2023-02-15T02:26:37.013Z,67.58
2023-02-15T02:29:25.920Z,66.68
2023-02-15T02:32:14.893Z,67.34
2023-02-15T02:35:20.555Z,67.36
2023-02-15T02:37:57.749Z,67.54
2023-02-15T02:41:10.908Z,67.46
2023-02-15T02:44:11.303Z,67.89
2023-02-15T02:47:02.010Z,69.60
2023-02-15T02:49:38.683Z,69.99
2023-02-15T02:52:41.024Z,69.86
2023-02-15T02:55:42.511Z,70.41
2023-02-15T02:58:41.885Z,70.44
2023-02-15T03:01:22.200Z,70.18
2023-02-15T03:04:02.252Z,70.24
2023-02-15T03:06:40.045Z,70.34
2023-02-15T03:09:19.894Z,70.32
2023-02-15T03:11:52.396Z,70.13
2023-02-15T03:14:25.734Z,70.89
2023-02-15T03:16:58.282Z,71.39
2023-02-15T03:19:34.152Z,71.17
2023-02-15T03:22:12.809Z,70.56
2023-02-15T03:24:58.820Z,70.90
2023-02-15T03:27:36.310Z,70.15
2023-02-15T03:30:10.552Z,70.10
2023-02-15T03:32:43.864Z,69.43
2023-02-15T03:35:16.212Z,69.02
2023-02-15T03:37:52.911Z,69.05
2023-02-15T03:40:54.923Z,68.61
2023-02-15T03:44:00.161Z,68.88
2023-02-15T03:46:43.366Z,68.76
2023-02-15T03:49:53.666Z,69.44
2023-02-15T03:52:27.562Z,69.62
2023-02-15T03:55:00.023Z,69.11
2023-02-15T03:57:50.127Z,68.25
2023-02-15T04:00:44.071Z,68.61
2023-02-15T04:03:27.261Z,69.42
2023-02-15T04:05:59.845Z,69.53
2023-02-15T04:08:37.519Z,68.38
2023-02-15T04:11:09.934Z,68.33
2023-02-15T04:13:43.951Z,68.84
2023-02-15T04:16:16.433Z,69.33
2023-02-15T04:19:06.386Z,69.11
2023-02-15T04:21:56.525Z,69.13
2023-02-15T04:24:46.369Z,68.71
2023-02-15T04:27:18.931Z,69.53
2023-02-15T04:29:51.515Z,69.04
2023-02-15T04:32:23.902Z,70.03
2023-02-15T04:34:56.764Z,69.94
2023-02-15T04:37:29.754Z,69.71
2023-02-15T04:40:02.232Z,69.73
2023-02-15T04:42:34.813Z,70.30
2023-02-15T04:45:07.799Z,70.53
2023-02-15T04:47:40.323Z,70.96
2023-02-15T04:50:13.101Z,70.73
2023-02-15T04:52:46.043Z,70.22
2023-02-15T04:55:18.753Z,70.47
2023-02-15T04:57:51.501Z,70.55
2023-02-15T05:00:23.989Z,69.98
2023-02-15T05:02:56.560Z,70.68
2023-02-15T05:05:29.873Z,70.57
2023-02-15T05:08:02.705Z,70.36
2023-02-15T05:10:35.737Z,71.17
2023-02-15T05:13:08.228Z,71.71
2023-02-15T05:15:40.845Z,72.32
2023-02-15T05:18:13.279Z,71.57
2023-02-15T05:20:45.704Z,70.90
2023-02-15T05:23:18.253Z,70.97
2023-02-15T05:26:11.241Z,70.35
2023-02-15T05:28:44.902Z,70.25
2023-02-15T05:31:20.172Z,70.42
2023-02-15T05:33:52.761Z,70.55
2023-02-15T05:36:25.489Z,70.59
2023-02-15T05:38:58.367Z,70.02
2023-02-15T05:41:31.078Z,69.26
2023-02-15T05:44:03.635Z,68.94
2023-02-15T05:46:36.517Z,69.85
2023-02-15T05:49:08.970Z,69.18
2023-02-15T05:51:41.557Z,69.71
2023-02-15T05:54:14.158Z,69.53
2023-02-15T05:56:46.533Z,69.15
2023-02-15T05:59:19.350Z,68.63
2023-02-15T06:01:51.870Z,67.90
2023-02-15T06:04:24.207Z,69.03
2023-02-15T06:06:56.509Z,69.13
2023-02-15T06:09:28.951Z,67.77
2023-02-15T06:12:01.386Z,67.75
2023-02-15T06:14:33.919Z,68.33
2023-02-15T06:17:06.680Z,69.16
2023-02-15T06:19:39.444Z,68.41
2023-02-15T06:22:12.082Z,71.68
2023-02-15T06:24:45.775Z,71.30
2023-02-15T06:27:18.900Z,70.87
2023-02-15T06:29:51.691Z,69.76
2023-02-15T06:32:25.244Z,69.63
2023-02-15T06:34:59.183Z,67.38
2023-02-15T06:37:32.310Z,64.88
2023-02-15T06:40:05.160Z,61.79
2023-02-15T06:42:37.948Z,61.34
2023-02-15T06:45:11.365Z,59.57
2023-02-15T06:47:43.833Z,57.25
2023-02-15T06:50:16.283Z,55.17
2023-02-15T06:52:48.679Z,52.81
2023-02-15T06:55:21.111Z,51.81
2023-02-15T06:57:53.774Z,50.46
2023-02-15T07:00:26.404Z,49.29
2023-02-15T07:03:00.207Z,48.70
2023-02-15T07:05:35.135Z,47.29
2023-02-15T07:08:07.656Z,47.39
2023-02-15T07:10:40.225Z,46.79
2023-02-15T07:13:12.668Z,45.68
2023-02-15T07:15:46.641Z,44.99
2023-02-15T07:18:19.703Z,45.20
2023-02-15T07:20:52.348Z,45.81
2023-02-15T07:23:26.362Z,43.95
2023-02-15T07:26:02.949Z,44.56
2023-02-15T07:28:36.519Z,43.38
2023-02-15T07:31:08.960Z,43.29
2023-02-15T07:33:42.207Z,42.65
2023-02-15T07:36:15.444Z,42.69
2023-02-15T07:38:48.161Z,42.90
2023-02-15T07:41:20.644Z,43.37
2023-02-15T07:43:53.125Z,42.25
2023-02-15T07:46:25.455Z,41.87
2023-02-15T07:48:57.808Z,41.88
2023-02-15T07:51:30.217Z,42.09
2023-02-15T07:54:03.352Z,41.21
2023-02-15T07:56:37.163Z,40.31
2023-02-15T07:59:10.646Z,40.18
2023-02-15T08:01:43.446Z,41.68
2023-02-15T08:04:16.415Z,41.10
2023-02-15T08:06:49.556Z,40.82
2023-02-15T08:09:23.824Z,39.86
2023-02-15T08:11:56.380Z,40.63
2023-02-15T08:14:30.224Z,40.65
2023-02-15T08:17:06.141Z,40.94
2023-02-15T08:19:39.136Z,40.11
2023-02-15T08:22:15.241Z,40.08
2023-02-15T08:24:47.773Z,40.40
2023-02-15T08:27:22.085Z,39.54
2023-02-15T08:29:54.631Z,39.11
2023-02-15T08:32:27.065Z,38.44
2023-02-15T08:34:59.516Z,39.32
2023-02-15T08:37:31.998Z,41.51
2023-02-15T08:40:04.459Z,39.37
2023-02-15T08:42:37.043Z,39.17
2023-02-15T08:45:11.119Z,38.97
2023-02-15T08:47:43.621Z,38.21
2023-02-15T08:50:16.292Z,38.02
2023-02-15T08:52:48.725Z,39.40
2023-02-15T08:55:21.892Z,37.03
2023-02-15T08:57:55.881Z,36.69
2023-02-15T09:00:29.456Z,37.73
2023-02-15T09:03:01.930Z,37.39
2023-02-15T09:05:35.053Z,36.12
2023-02-15T09:08:07.763Z,36.17
2023-02-15T09:10:41.212Z,37.37
2023-02-15T09:13:15.225Z,37.01
2023-02-15T09:15:48.641Z,37.19
2023-02-15T09:18:21.534Z,36.55
2023-02-15T09:20:53.867Z,36.39
2023-02-15T09:23:27.234Z,36.51
2023-02-15T09:26:01.458Z,36.82
2023-02-15T09:28:34.431Z,37.20
2023-02-15T09:31:17.704Z,37.01
2023-02-15T09:33:50.730Z,36.45
2023-02-15T09:36:26.323Z,37.32
2023-02-15T09:39:06.895Z,37.51
2023-02-15T09:41:56.309Z,37.31
2023-02-15T09:44:50.226Z,36.78
2023-02-15T09:47:45.231Z,37.60
2023-02-15T09:50:57.205Z,37.64
2023-02-15T09:53:46.084Z,37.81
2023-02-15T09:56:28.851Z,36.67
2023-02-15T09:59:14.482Z,36.88
2023-02-15T10:02:15.354Z,36.39
2023-02-15T10:05:01.561Z,36.25
2023-02-15T10:07:56.726Z,42.22
2023-02-15T10:11:27.103Z,39.26
2023-02-15T10:14:35.683Z,35.78
2023-02-15T10:17:31.122Z,34.81
2023-02-15T10:20:24.547Z,36.11
2023-02-15T10:23:38.923Z,33.91
2023-02-15T10:26:25.262Z,34.50
2023-02-15T10:29:15.075Z,34.92
2023-02-15T10:31:58.275Z,34.20
2023-02-15T10:34:42.275Z,34.55
2023-02-15T10:37:50.570Z,33.73
2023-02-15T10:40:42.287Z,34.51
2023-02-15T10:43:34.402Z,35.15
2023-02-15T10:46:11.693Z,33.18
2023-02-15T10:49:19.169Z,33.36
2023-02-15T10:52:18.994Z,34.20
2023-02-15T10:54:59.399Z,34.34
2023-02-15T10:57:40.669Z,33.20
2023-02-15T11:00:40.351Z,33.92
2023-02-15T11:03:23.433Z,32.72
2023-02-15T11:06:14.464Z,32.93
2023-02-15T11:08:54.742Z,31.94
2023-02-15T11:11:44.352Z,33.22
2023-02-15T11:14:49.328Z,32.51
2023-02-15T11:17:37.881Z,32.30
2023-02-15T11:20:36.100Z,33.03
2023-02-15T11:23:17.008Z,31.96
2023-02-15T11:25:53.966Z,31.53
2023-02-15T11:28:34.103Z,31.96
2023-02-15T11:31:22.632Z,31.61
2023-02-15T11:34:07.728Z,30.44
2023-02-15T11:36:42.833Z,31.55
2023-02-15T11:39:17.998Z,30.74
2023-02-15T11:41:55.137Z,30.04
2023-02-15T11:44:34.393Z,30.93
2023-02-15T11:47:14.340Z,31.34
2023-02-15T11:49:48.026Z,31.15
2023-02-15T11:52:20.825Z,30.76
2023-02-15T11:54:53.759Z,30.42
2023-02-15T11:57:38.994Z,30.63
2023-02-15T12:00:22.635Z,29.56
2023-02-15T12:02:56.597Z,31.48
2023-02-15T12:05:28.921Z,30.08
2023-02-15T12:08:09.074Z,30.44
2023-02-15T12:10:49.036Z,32.13
2023-02-15T12:13:23.175Z,33.57
2023-02-15T12:15:59.246Z,34.41
2023-02-15T12:18:45.389Z,34.23
2023-02-15T12:21:30.459Z,35.47
2023-02-15T12:24:13.634Z,37.66
2023-02-15T12:26:45.965Z,37.33
2023-02-15T12:29:21.770Z,40.40
2023-02-15T12:31:54.293Z,40.61
2023-02-15T12:34:44.805Z,41.30
2023-02-15T12:37:27.815Z,41.71
2023-02-15T12:40:01.667Z,40.60
2023-02-15T12:42:46.757Z,40.77
2023-02-15T12:45:27.034Z,40.85
2023-02-15T12:48:19.529Z,40.53
2023-02-15T12:50:55.730Z,42.96
2023-02-15T12:53:36.576Z,46.57
2023-02-15T12:56:11.494Z,45.69
2023-02-15T12:58:43.412Z,45.28
2023-02-15T13:01:25.492Z,45.87
2023-02-15T13:04:07.115Z,44.13
2023-02-15T13:06:39.511Z,43.36
2023-02-15T13:09:18.228Z,42.54
2023-02-15T13:11:50.705Z,43.17
2023-02-15T13:14:33.211Z,42.84
2023-02-15T13:17:08.778Z,42.50
2023-02-15T13:19:51.469Z,41.50
2023-02-15T13:22:41.425Z,43.63
2023-02-15T13:25:27.178Z,42.95
2023-02-15T13:28:04.616Z,43.41
2023-02-15T13:30:40.796Z,43.15
2023-02-15T13:33:36.025Z,43.68
2023-02-15T13:36:33.909Z,41.72
2023-02-15T13:39:32.705Z,42.44
2023-02-15T13:42:24.544Z,43.42
2023-02-15T13:45:21.409Z,43.45
2023-02-15T13:48:19.332Z,42.79
2023-02-15T13:51:17.460Z,42.81
2023-02-15T13:54:12.512Z,43.05
2023-02-15T13:57:23.005Z,43.72
2023-02-15T14:00:05.661Z,42.81
2023-02-15T14:03:31.173Z,41.23
2023-02-15T14:06:35.028Z,41.50
2023-02-15T14:09:34.653Z,41.67
2023-02-15T14:12:18.177Z,41.15
2023-02-15T14:15:01.322Z,41.10
2023-02-15T14:17:44.472Z,41.43
2023-02-15T14:20:50.220Z,41.58
2023-02-15T14:24:09.444Z,41.89
2023-02-15T14:26:50.017Z,41.27
2023-02-15T14:29:57.296Z,39.92
2023-02-15T14:32:43.280Z,40.01
2023-02-15T14:35:20.794Z,39.95
2023-02-15T14:38:14.176Z,40.44
2023-02-15T14:41:04.573Z,39.33
2023-02-15T14:44:12.320Z,39.96
2023-02-15T14:47:02.498Z,40.54
2023-02-15T14:49:40.346Z,39.73
2023-02-15T14:52:13.576Z,39.34
2023-02-15T14:54:50.912Z,39.80
2023-02-15T14:57:28.682Z,40.39
2023-02-15T15:00:02.392Z,39.63
2023-02-15T15:02:50.206Z,41.43
2023-02-15T15:05:38.314Z,40.10
2023-02-15T15:08:15.591Z,40.68
2023-02-15T15:10:49.414Z,42.45
2023-02-15T15:13:39.042Z,40.18
2023-02-15T15:16:42.114Z,39.92
2023-02-15T15:19:14.440Z,40.09
2023-02-15T15:21:54.536Z,39.87
2023-02-15T15:24:47.102Z,39.49
2023-02-15T15:27:50.175Z,40.43
2023-02-15T15:30:27.425Z,41.25
2023-02-15T15:33:10.385Z,40.98
2023-02-15T15:36:13.321Z,41.18
2023-02-15T15:39:10.966Z,40.85
2023-02-15T15:42:14.357Z,41.46
2023-02-15T15:45:20.008Z,42.29
2023-02-15T15:48:31.124Z,40.86
2023-02-15T15:51:22.642Z,41.53
2023-02-15T15:53:55.176Z,40.76
2023-02-15T15:56:36.627Z,41.87
2023-02-15T15:59:11.839Z,41.47
2023-02-15T16:01:47.452Z,41.26
2023-02-15T16:04:30.945Z,40.84
2023-02-15T16:07:27.158Z,41.47
2023-02-15T16:10:09.347Z,42.03
2023-02-15T16:12:42.045Z,41.49
2023-02-15T16:15:24.972Z,41.30
2023-02-15T16:17:59.149Z,41.20
2023-02-15T16:20:38.360Z,40.88
2023-02-15T16:23:34.994Z,41.38
2023-02-15T16:26:17.663Z,41.37
2023-02-15T16:28:53.715Z,41.27
2023-02-15T16:31:26.258Z,41.22
2023-02-15T16:33:59.409Z,41.56
2023-02-15T16:36:31.724Z,40.83
2023-02-15T16:39:21.041Z,40.95
2023-02-15T16:41:53.633Z,41.60
2023-02-15T16:44:26.660Z,41.34
2023-02-15T16:46:59.076Z,41.32
2023-02-15T16:49:31.890Z,42.57
2023-02-15T16:52:09.670Z,42.60
2023-02-15T16:54:43.919Z,42.70
2023-02-15T16:57:25.048Z,42.83
2023-02-15T17:00:01.213Z,42.94
2023-02-15T17:02:56.315Z,43.07
2023-02-15T17:05:18.466Z,42.59
2023-02-15T17:08:10.324Z,42.79
2023-02-15T17:10:44.141Z,43.77
2023-02-15T17:13:18.066Z,43.28
2023-02-15T17:16:05.234Z,43.53
2023-02-15T17:18:47.434Z,44.17
2023-02-15T17:21:25.861Z,44.04
2023-02-15T17:24:04.266Z,43.78
2023-02-15T17:26:38.408Z,43.76
2023-02-15T17:29:41.153Z,43.35
2023-02-15T17:32:23.589Z,43.23
2023-02-15T17:35:12.283Z,44.25
2023-02-15T17:37:48.832Z,44.32
2023-02-15T17:40:27.301Z,44.56
2023-02-15T17:42:59.960Z,44.61
2023-02-15T17:45:40.011Z,44.09
2023-02-15T17:48:16.651Z,44.06
2023-02-15T17:50:49.233Z,44.09
2023-02-15T17:53:22.370Z,44.14
2023-02-15T17:55:56.124Z,44.42
2023-02-15T17:58:28.847Z,44.41
2023-02-15T18:01:19.202Z,44.60
2023-02-15T18:04:10.438Z,44.98
2023-02-15T18:07:01.941Z,45.39
2023-02-15T18:09:52.270Z,44.49
2023-02-15T18:12:32.503Z,45.78
2023-02-15T18:15:05.951Z,46.70
2023-02-15T18:17:41.395Z,46.03
2023-02-15T18:20:31.171Z,46.17
2023-02-15T18:23:03.867Z,46.55
2023-02-15T18:25:36.341Z,46.57
2023-02-15T18:28:08.988Z,47.16
2023-02-15T18:30:43.821Z,47.21
2023-02-15T18:33:28.195Z,47.62
2023-02-15T18:36:01.259Z,47.73
2023-02-15T18:38:34.441Z,47.20
2023-02-15T18:41:07.214Z,46.54
2023-02-15T18:43:41.903Z,47.29
2023-02-15T18:46:15.042Z,47.03
2023-02-15T18:48:47.621Z,47.12
2023-02-15T18:51:24.352Z,47.39
2023-02-15T18:53:56.855Z,48.03
2023-02-15T18:56:31.129Z,48.09
2023-02-15T18:59:03.560Z,48.34
2023-02-15T19:01:36.588Z,48.16
2023-02-15T19:04:09.501Z,48.43
2023-02-15T19:06:46.701Z,48.97
2023-02-15T19:09:26.306Z,51.43
2023-02-15T19:12:09.032Z,61.82
2023-02-15T19:14:41.756Z,62.14
2023-02-15T19:17:18.741Z,55.71
2023-02-15T19:19:51.664Z,52.30
2023-02-15T19:22:31.335Z,51.54
2023-02-15T19:25:04.696Z,50.73
2023-02-15T19:27:37.418Z,50.90
2023-02-15T19:30:27.383Z,50.85
2023-02-15T19:33:00.061Z,50.66
2023-02-15T19:35:35.925Z,50.77
2023-02-15T19:38:09.527Z,51.18
2023-02-15T19:40:42.155Z,51.26
2023-02-15T19:43:26.306Z,51.67
2023-02-15T19:45:58.760Z,51.25
2023-02-15T19:48:31.098Z,50.90
2023-02-15T19:51:05.664Z,51.41
2023-02-15T19:53:38.666Z,51.16
2023-02-15T19:56:15.138Z,51.16
2023-02-15T19:58:49.713Z,51.29
2023-02-15T20:01:23.095Z,51.17
2023-02-15T20:03:55.693Z,50.76
2023-02-15T20:06:29.025Z,51.40
2023-02-15T20:09:01.815Z,51.35
2023-02-15T20:11:34.158Z,51.28
2023-02-15T20:14:11.428Z,51.28
2023-02-15T20:16:44.302Z,50.84
2023-02-15T20:19:17.409Z,51.00
2023-02-15T20:21:51.824Z,51.00
2023-02-15T20:24:24.311Z,51.71
2023-02-15T20:26:57.318Z,51.35
2023-02-15T20:29:30.017Z,51.19
2023-02-15T20:32:03.562Z,51.84
2023-02-15T20:34:36.535Z,51.88
2023-02-15T20:37:12.163Z,51.98
2023-02-15T20:39:44.842Z,51.77
2023-02-15T20:42:17.299Z,52.29
2023-02-15T20:44:50.852Z,52.52
2023-02-15T20:47:23.462Z,52.72
2023-02-15T20:49:57.339Z,52.05
2023-02-15T20:52:29.631Z,52.16
2023-02-15T20:55:01.971Z,53.03
2023-02-15T20:57:35.433Z,53.03
2023-02-15T21:00:12.184Z,52.48
2023-02-15T21:02:45.540Z,52.63
2023-02-15T21:05:24.950Z,52.76
2023-02-15T21:07:57.982Z,53.69
2023-02-15T21:10:34.021Z,53.82
2023-02-15T21:13:06.608Z,53.86
2023-02-15T21:15:40.210Z,54.21
2023-02-15T21:18:19.972Z,53.90
2023-02-15T21:20:57.466Z,54.51
2023-02-15T21:23:39.685Z,54.49
2023-02-15T21:26:19.953Z,53.95
2023-02-15T21:28:52.986Z,54.57
2023-02-15T21:31:28.688Z,54.92
2023-02-15T21:34:01.799Z,54.79
2023-02-15T21:36:34.599Z,55.03
2023-02-15T21:39:07.642Z,55.26
2023-02-15T21:41:57.780Z,55.12
2023-02-15T21:44:47.912Z,55.64
2023-02-15T21:47:39.766Z,55.62
2023-02-15T21:50:33.365Z,55.30
2023-02-15T21:53:06.327Z,55.24
2023-02-15T21:55:40.604Z,55.74
2023-02-15T21:58:21.471Z,55.71
2023-02-15T22:00:57.804Z,55.48
2023-02-15T22:03:34.264Z,55.39
2023-02-15T22:06:07.117Z,55.61
2023-02-15T22:08:39.513Z,55.71
2023-02-15T22:11:17.264Z,55.39
2023-02-15T22:13:51.394Z,55.94
2023-02-15T22:16:24.623Z,56.35
2023-02-15T22:18:56.962Z,56.26
2023-02-15T22:21:31.005Z,56.60
2023-02-15T22:24:03.300Z,56.62
2023-02-15T22:26:35.598Z,57.29
2023-02-15T22:29:08.584Z,57.19
2023-02-15T22:31:41.092Z,56.87
2023-02-15T22:34:32.018Z,56.88
2023-02-15T22:37:06.025Z,56.72
2023-02-15T22:39:38.448Z,56.48
2023-02-15T22:42:25.580Z,57.15
2023-02-15T22:44:58.730Z,57.48
2023-02-15T22:47:32.350Z,57.53
2023-02-15T22:50:05.110Z,58.18
2023-02-15T22:52:38.177Z,57.78
2023-02-15T22:55:16.663Z,57.53
2023-02-15T22:57:51.389Z,57.27
2023-02-15T23:00:27.121Z,57.82
2023-02-15T23:03:00.048Z,58.39
2023-02-15T23:05:33.359Z,57.95
2023-02-15T23:08:06.578Z,57.95
2023-02-15T23:10:39.261Z,58.13
2023-02-15T23:13:25.884Z,58.49
2023-02-15T23:16:03.155Z,58.36
2023-02-15T23:18:40.940Z,58.15
2023-02-15T23:21:29.087Z,59.31
2023-02-15T23:24:28.744Z,58.92
2023-02-15T23:27:02.891Z,58.52
2023-02-15T23:29:35.211Z,58.36
2023-02-15T23:32:09.720Z,58.40
2023-02-15T23:34:42.906Z,58.83
2023-02-15T23:37:15.552Z,58.92
2023-02-15T23:40:05.719Z,59.22
2023-02-15T23:42:38.921Z,59.29
2023-02-15T23:45:22.507Z,59.48
2023-02-15T23:48:12.694Z,59.58
2023-02-15T23:50:45.103Z,60.28
2023-02-15T23:53:17.373Z,60.63
2023-02-15T23:55:50.353Z,60.84
2023-02-15T23:58:26.014Z,61.08
